createdAt,value
2023-05-03T00:02:18.285Z,101032.34
2023-05-03T00:04:48.596Z,101037.44
2023-05-03T00:07:16.903Z,101040.81
2023-05-03T00:09:44.805Z,101037.56
2023-05-03T00:12:12.474Z,101036.63
2023-05-03T00:14:40.398Z,101036.63
2023-05-03T00:17:08.243Z,101042.94
2023-05-03T00:19:37.579Z,101040.53
2023-05-03T00:22:05.242Z,101042.28
2023-05-03T00:24:33.255Z,101044.16
2023-05-03T00:27:01.668Z,101043.34
2023-05-03T00:29:29.607Z,101045.09
2023-05-03T00:31:57.312Z,101048.69
2023-05-03T00:34:25.197Z,101048.78
2023-05-03T00:36:52.821Z,101046.03
2023-05-03T00:39:20.813Z,101050.41
2023-05-03T00:41:48.461Z,101033.28
2023-05-03T00:44:16.728Z,101052.28
2023-05-03T00:46:44.459Z,101050.50
2023-05-03T00:49:12.664Z,101046.91
2023-05-03T00:51:42.089Z,101053.78
2023-05-03T00:54:11.167Z,101050.13
2023-05-03T00:56:48.395Z,101039.72
2023-05-03T00:59:20.100Z,101033.28
2023-05-03T01:01:52.551Z,101041.09
2023-05-03T01:04:21.938Z,101037.97
2023-05-03T01:06:51.267Z,101033.00
2023-05-03T01:09:51.059Z,101033.00
2023-05-03T01:12:36.179Z,101035.78
2023-05-03T01:15:35.013Z,101043.94
2023-05-03T01:18:12.520Z,101053.81
2023-05-03T01:20:44.059Z,101048.84
2023-05-03T01:23:22.210Z,101066.69
2023-05-03T01:25:53.358Z,101058.31
2023-05-03T01:28:21.503Z,101069.00
2023-05-03T01:30:52.616Z,101075.31
2023-05-03T01:33:40.717Z,101086.81
2023-05-03T01:36:18.132Z,101078.28
2023-05-03T01:38:47.288Z,101088.00
2023-05-03T01:41:19.816Z,101086.22
2023-05-03T01:43:48.904Z,101088.94
2023-05-03T01:46:17.121Z,101086.38
2023-05-03T01:48:47.290Z,101089.00
2023-05-03T01:51:15.277Z,101091.69
2023-05-03T01:53:43.928Z,101094.16
2023-05-03T01:56:11.851Z,101093.13
2023-05-03T01:58:39.627Z,101096.53
2023-05-03T02:01:08.083Z,101104.19
2023-05-03T02:03:36.049Z,101094.59
2023-05-03T02:06:04.103Z,101097.91
2023-05-03T02:08:31.797Z,101103.09
2023-05-03T02:11:00.798Z,101099.75
2023-05-03T02:13:28.519Z,101098.94
2023-05-03T02:15:56.533Z,101095.50
2023-05-03T02:18:24.666Z,101105.91
2023-05-03T02:20:52.898Z,101101.56
2023-05-03T02:23:20.557Z,101098.25
2023-05-03T02:25:49.157Z,101096.50
2023-05-03T02:28:16.838Z,101103.53
2023-05-03T02:30:44.897Z,101101.88
2023-05-03T02:33:12.690Z,101103.59
2023-05-03T02:35:40.765Z,101101.81
2023-05-03T02:38:09.146Z,101103.75
2023-05-03T02:40:37.955Z,101096.91
2023-05-03T02:43:06.130Z,101107.44
2023-05-03T02:45:36.906Z,101102.22
2023-05-03T02:48:04.933Z,101105.81
2023-05-03T02:50:32.917Z,101122.34
2023-05-03T02:53:00.772Z,101128.47
2023-05-03T02:55:28.954Z,101125.00
2023-05-03T02:57:56.855Z,101124.91
2023-05-03T03:00:24.859Z,101121.44
2023-05-03T03:02:52.760Z,101128.28
2023-05-03T03:05:22.070Z,101133.41
2023-05-03T03:07:51.667Z,101144.63
2023-05-03T03:10:19.948Z,101138.47
2023-05-03T03:12:47.934Z,101140.16
2023-05-03T03:15:25.483Z,101141.84
2023-05-03T03:17:57.728Z,101143.50
2023-05-03T03:20:27.145Z,101143.47
2023-05-03T03:22:55.178Z,101145.16
2023-05-03T03:25:23.337Z,101141.56
2023-05-03T03:27:51.080Z,101136.34
2023-05-03T03:30:19.151Z,101143.06
2023-05-03T03:32:57.110Z,101139.50
2023-05-03T03:35:33.537Z,101143.06
2023-05-03T03:38:02.078Z,101145.81
2023-05-03T03:40:30.376Z,101138.69
2023-05-03T03:42:58.865Z,101143.88
2023-05-03T03:45:27.683Z,101131.53
2023-05-03T03:47:58.194Z,101136.53
2023-05-03T03:50:27.100Z,101135.56
2023-05-03T03:52:54.798Z,101139.84
2023-05-03T03:55:23.362Z,101145.13
2023-05-03T03:57:54.098Z,101152.78
2023-05-03T04:00:23.077Z,101158.16
2023-05-03T04:02:59.770Z,101161.44
2023-05-03T04:05:27.857Z,101180.47
2023-05-03T04:07:55.641Z,101185.56
2023-05-03T04:10:24.579Z,101179.94
2023-05-03T04:12:52.195Z,101180.94
2023-05-03T04:15:20.457Z,101182.53
2023-05-03T04:17:49.575Z,101181.69
2023-05-03T04:20:18.243Z,101185.03
2023-05-03T04:22:49.235Z,101191.63
2023-05-03T04:25:19.692Z,101195.59
2023-05-03T04:27:56.885Z,101191.22
2023-05-03T04:30:26.462Z,101191.78
2023-05-03T04:32:59.589Z,101193.16
2023-05-03T04:35:29.411Z,101195.44
2023-05-03T04:37:59.012Z,101203.59
2023-05-03T04:40:29.230Z,101206.38
2023-05-03T04:43:05.469Z,101208.31
2023-05-03T04:45:37.184Z,101208.16
2023-05-03T04:48:05.632Z,101209.84
2023-05-03T04:50:34.634Z,101213.50
2023-05-03T04:53:03.996Z,101211.13
2023-05-03T04:55:35.341Z,101222.59
2023-05-03T04:58:05.362Z,101218.91
2023-05-03T05:00:34.635Z,101219.22
2023-05-03T05:03:09.216Z,101228.03
2023-05-03T05:05:37.355Z,101226.69
2023-05-03T05:08:05.348Z,101223.38
2023-05-03T05:10:43.357Z,101231.06
2023-05-03T05:13:15.979Z,101237.47
2023-05-03T05:15:44.213Z,101241.16
2023-05-03T05:18:13.856Z,101238.94
2023-05-03T05:20:43.193Z,101244.50
2023-05-03T05:23:12.266Z,101248.59
2023-05-03T05:25:43.413Z,101254.53
2023-05-03T05:28:11.543Z,101256.53
2023-05-03T05:30:41.529Z,101256.06
2023-05-03T05:33:09.693Z,101261.06
2023-05-03T05:35:38.627Z,101251.00
2023-05-03T05:38:06.395Z,101261.47
2023-05-03T05:40:36.472Z,101257.31
2023-05-03T05:43:04.999Z,101267.78
2023-05-03T05:45:37.002Z,101268.22
2023-05-03T05:48:06.410Z,101272.09
2023-05-03T05:50:35.667Z,101266.72
2023-05-03T05:53:09.749Z,101273.22
2023-05-03T05:55:42.076Z,101270.72
2023-05-03T05:58:13.056Z,101277.19
2023-05-03T06:00:49.042Z,101282.59
2023-05-03T06:03:17.865Z,101280.69
2023-05-03T06:05:49.950Z,101282.69
2023-05-03T06:08:17.634Z,101291.34
2023-05-03T06:10:45.820Z,101281.31
2023-05-03T06:13:13.848Z,101291.31
2023-05-03T06:15:42.288Z,101294.75
2023-05-03T06:18:10.157Z,101297.09
2023-05-03T06:20:38.290Z,101293.41
2023-05-03T06:23:06.411Z,101297.06
2023-05-03T06:25:38.797Z,101305.31
2023-05-03T06:28:07.168Z,101310.66
2023-05-03T06:30:36.810Z,101311.06
2023-05-03T06:33:13.605Z,101304.25
2023-05-03T06:35:43.068Z,101303.69
2023-05-03T06:38:12.117Z,101309.31
2023-05-03T06:40:41.439Z,101313.59
2023-05-03T06:43:09.109Z,101314.31
2023-05-03T06:45:43.927Z,101315.59
2023-05-03T06:48:11.686Z,101314.03
2023-05-03T06:50:40.016Z,101312.69
2023-05-03T06:53:07.767Z,101314.81
2023-05-03T06:55:35.724Z,101306.97
2023-05-03T06:58:03.549Z,101308.97
2023-05-03T07:00:31.557Z,101311.22
2023-05-03T07:02:59.394Z,101323.44
2023-05-03T07:05:27.561Z,101325.72
2023-05-03T07:07:55.208Z,101325.97
2023-05-03T07:10:23.231Z,101324.59
2023-05-03T07:12:51.428Z,101324.88
2023-05-03T07:15:19.300Z,101323.03
2023-05-03T07:17:47.029Z,101327.09
2023-05-03T07:20:15.065Z,101329.31
2023-05-03T07:22:42.705Z,101330.19
2023-05-03T07:25:12.344Z,101337.22
2023-05-03T07:27:40.131Z,101337.50
2023-05-03T07:30:08.672Z,101338.25
2023-05-03T07:32:36.498Z,101336.81
2023-05-03T07:35:05.186Z,101332.66
2023-05-03T07:37:32.798Z,101339.00
2023-05-03T07:40:00.937Z,101350.50
2023-05-03T07:42:28.766Z,101338.06
2023-05-03T07:44:56.783Z,101337.16
2023-05-03T07:47:24.717Z,101339.63
2023-05-03T07:49:52.694Z,101339.47
2023-05-03T07:52:20.852Z,101330.09
2023-05-03T07:54:48.837Z,101340.06
2023-05-03T07:57:16.790Z,101336.53
2023-05-03T07:59:44.850Z,101329.84
2023-05-03T08:02:12.638Z,101344.41
2023-05-03T08:04:41.339Z,101331.53
2023-05-03T08:07:09.717Z,101348.19
2023-05-03T08:09:37.690Z,101344.56
2023-05-03T08:12:05.729Z,101335.13
2023-05-03T08:14:34.006Z,101338.72
2023-05-03T08:17:01.737Z,101336.72
2023-05-03T08:19:29.715Z,101324.91
2023-05-03T08:21:58.528Z,101329.22
2023-05-03T08:24:27.057Z,101335.84
2023-05-03T08:26:55.605Z,101334.53
2023-05-03T08:29:24.361Z,101341.38
2023-05-03T08:31:53.602Z,101339.44
2023-05-03T08:34:22.080Z,101338.22
2023-05-03T08:36:49.847Z,101327.25
2023-05-03T08:39:18.886Z,101326.78
2023-05-03T08:41:47.138Z,101333.53
2023-05-03T08:44:22.516Z,101338.81
2023-05-03T08:46:53.575Z,101339.41
2023-05-03T08:49:22.579Z,101327.09
2023-05-03T08:51:51.519Z,101331.63
2023-05-03T08:54:21.349Z,101335.56
2023-05-03T08:56:49.749Z,101327.50
2023-05-03T08:59:17.894Z,101331.03
2023-05-03T09:01:45.906Z,101325.78
2023-05-03T09:04:14.234Z,101336.97
2023-05-03T09:06:42.331Z,101332.69
2023-05-03T09:09:11.117Z,101336.00
2023-05-03T09:11:39.939Z,101335.81
2023-05-03T09:14:16.249Z,101345.41
2023-05-03T09:16:46.709Z,101336.19
2023-05-03T09:19:16.339Z,101340.47
2023-05-03T09:21:49.529Z,101335.38
2023-05-03T09:24:19.880Z,101333.69
2023-05-03T09:26:50.264Z,101335.47
2023-05-03T09:29:48.537Z,101342.97
2023-05-03T09:32:17.626Z,101347.66
2023-05-03T09:34:46.240Z,101332.88
2023-05-03T09:37:14.714Z,101332.44
2023-05-03T09:39:45.127Z,101330.94
2023-05-03T09:42:18.897Z,101335.72
2023-05-03T09:44:48.998Z,101330.44
2023-05-03T09:47:17.540Z,101343.34
2023-05-03T09:49:45.841Z,101330.38
2023-05-03T09:52:13.776Z,101331.50
2023-05-03T09:54:43.807Z,101339.13
2023-05-03T09:57:14.898Z,101342.34
2023-05-03T09:59:47.062Z,101324.69
2023-05-03T10:02:16.491Z,101326.88
2023-05-03T10:04:51.659Z,101330.19
2023-05-03T10:07:22.850Z,101338.41
2023-05-03T10:09:51.130Z,101337.41
2023-05-03T10:12:20.548Z,101340.34
2023-05-03T10:14:51.582Z,101334.47
2023-05-03T10:17:46.929Z,101328.09
2023-05-03T10:20:27.502Z,101323.81
2023-05-03T10:23:11.702Z,101331.38
2023-05-03T10:26:00.703Z,101334.31
2023-05-03T10:28:28.824Z,101341.25
2023-05-03T10:30:57.092Z,101340.88
2023-05-03T10:33:37.423Z,101346.31
2023-05-03T10:36:07.610Z,101348.56
2023-05-03T10:38:36.870Z,101325.28
2023-05-03T10:41:07.254Z,101328.94
2023-05-03T10:43:37.786Z,101336.63
2023-05-03T10:46:09.090Z,101336.72
2023-05-03T10:48:36.819Z,101325.94
2023-05-03T10:51:30.800Z,101342.16
2023-05-03T10:53:58.737Z,101333.22
2023-05-03T10:56:26.764Z,101333.66
2023-05-03T10:58:56.654Z,101327.38
2023-05-03T11:01:27.255Z,101331.88
2023-05-03T11:04:00.475Z,101336.78
2023-05-03T11:06:36.958Z,101326.84
2023-05-03T11:09:07.409Z,101331.50
2023-05-03T11:11:39.568Z,101326.53
2023-05-03T11:14:11.620Z,101330.59
2023-05-03T11:16:47.726Z,101333.09
2023-05-03T11:19:16.570Z,101339.66
2023-05-03T11:21:46.322Z,101346.66
2023-05-03T11:24:14.651Z,101340.94
2023-05-03T11:26:42.565Z,101334.75
2023-05-03T11:29:14.042Z,101338.66
2023-05-03T11:31:43.396Z,101337.63
2023-05-03T11:34:12.999Z,101342.19
2023-05-03T11:36:42.450Z,101340.34
2023-05-03T11:39:13.171Z,101336.88
2023-05-03T11:41:42.418Z,101337.91
2023-05-03T11:44:17.307Z,101337.34
2023-05-03T11:46:47.619Z,101343.94
2023-05-03T11:49:19.750Z,101331.19
2023-05-03T11:51:50.975Z,101340.09
2023-05-03T11:54:25.922Z,101335.75
2023-05-03T11:56:59.738Z,101340.56
2023-05-03T11:59:40.739Z,101349.63
2023-05-03T12:02:13.102Z,101348.97
2023-05-03T12:04:43.517Z,101340.03
2023-05-03T12:07:15.212Z,101351.94
2023-05-03T12:09:53.240Z,101345.53
2023-05-03T12:12:32.168Z,101352.63
2023-05-03T12:15:04.317Z,101349.31
2023-05-03T12:17:44.018Z,101344.78
2023-05-03T12:22:56.245Z,101337.84
2023-05-03T12:25:27.287Z,101334.41
2023-05-03T12:28:17.791Z,101332.34
2023-05-03T12:30:47.723Z,101328.84
2023-05-03T12:33:17.066Z,101328.13
2023-05-03T12:35:47.849Z,101327.53
2023-05-03T12:38:17.789Z,101324.31
2023-05-03T12:40:47.336Z,101322.84
2023-05-03T12:43:16.284Z,101324.81
2023-05-03T12:45:48.642Z,101324.00
2023-05-03T12:48:25.054Z,101329.47
2023-05-03T12:51:05.070Z,101313.34
2023-05-03T12:53:46.896Z,101325.81
2023-05-03T12:56:15.481Z,101327.16
2023-05-03T12:59:07.611Z,101320.28
2023-05-03T13:06:42.119Z,101313.31
2023-05-03T13:09:19.249Z,101320.06
2023-05-03T13:11:52.835Z,101311.38
2023-05-03T13:14:21.941Z,101313.22
2023-05-03T13:16:49.955Z,101320.34
2023-05-03T13:19:18.208Z,101315.34
2023-05-03T13:21:48.497Z,101316.56
2023-05-03T13:24:16.824Z,101315.91
2023-05-03T13:26:44.563Z,101302.09
2023-05-03T13:29:12.576Z,101300.84
2023-05-03T13:31:40.442Z,101295.69
2023-05-03T13:34:08.411Z,101299.25
2023-05-03T13:36:36.147Z,101299.38
2023-05-03T13:39:04.182Z,101305.28
2023-05-03T13:41:32.538Z,101303.56
2023-05-03T13:44:00.863Z,101305.66
2023-05-03T13:46:28.694Z,101300.84
2023-05-03T13:48:56.804Z,101289.75
2023-05-03T13:51:25.687Z,101293.59
2023-05-03T13:53:54.086Z,101293.47
2023-05-03T13:56:21.984Z,101297.38
2023-05-03T13:58:49.889Z,101297.84
2023-05-03T14:01:18.053Z,101290.06
2023-05-03T14:03:46.321Z,101290.75
2023-05-03T14:06:14.235Z,101296.94
2023-05-03T14:08:42.210Z,101294.94
2023-05-03T14:11:21.762Z,101294.38
2023-05-03T14:13:56.915Z,101286.41
2023-05-03T14:16:40.025Z,101300.00
2023-05-03T14:19:12.916Z,101300.97
2023-05-03T14:21:45.394Z,101295.22
2023-05-03T14:24:14.225Z,101301.16
2023-05-03T14:26:42.156Z,101298.78
2023-05-03T14:29:10.149Z,101304.28
2023-05-03T14:31:37.893Z,101297.13
2023-05-03T14:34:06.372Z,101296.63
2023-05-03T14:36:38.767Z,101301.09
2023-05-03T14:39:06.967Z,101297.06
2023-05-03T14:41:34.962Z,101296.84
2023-05-03T14:44:03.431Z,101296.84
2023-05-03T14:46:31.280Z,101302.22
2023-05-03T14:48:59.805Z,101296.75
2023-05-03T14:51:28.048Z,101301.06
2023-05-03T14:53:56.066Z,101306.88
2023-05-03T14:56:23.854Z,101300.06
2023-05-03T14:58:51.930Z,101295.13
2023-05-03T15:01:23.725Z,101299.47
2023-05-03T15:03:52.382Z,101304.94
2023-05-03T15:06:33.055Z,101304.94
2023-05-03T15:09:01.094Z,101294.31
2023-05-03T15:11:28.872Z,101288.69
2023-05-03T15:13:56.986Z,101290.78
2023-05-03T15:16:24.918Z,101288.41
2023-05-03T15:18:53.145Z,101295.00
2023-05-03T15:21:21.279Z,101292.03
2023-05-03T15:23:49.723Z,101289.59
2023-05-03T15:26:17.546Z,101310.81
2023-05-03T15:28:45.774Z,101305.69
2023-05-03T15:31:14.921Z,101301.03
2023-05-03T15:33:44.592Z,101299.78
2023-05-03T15:36:13.714Z,101304.97
2023-05-03T15:38:41.679Z,101303.50
2023-05-03T15:41:09.435Z,101309.97
2023-05-03T15:43:37.705Z,101302.91
2023-05-03T15:46:05.682Z,101307.91
2023-05-03T15:48:33.904Z,101303.47
2023-05-03T15:51:01.718Z,101311.84
2023-05-03T15:53:30.001Z,101312.88
2023-05-03T15:55:58.249Z,101305.78
2023-05-03T15:58:30.572Z,101307.59
2023-05-03T16:00:59.436Z,101314.66
2023-05-03T16:03:28.709Z,101308.63
2023-05-03T16:05:57.301Z,101304.16
2023-05-03T16:08:26.334Z,101302.56
2023-05-03T16:10:53.992Z,101307.19
2023-05-03T16:13:22.177Z,101301.00
2023-05-03T16:15:52.546Z,101295.00
2023-05-03T16:18:20.851Z,101303.59
2023-05-03T16:20:49.583Z,101309.91
2023-05-03T16:23:17.574Z,101302.94
2023-05-03T16:25:45.414Z,101312.13
2023-05-03T16:28:13.564Z,101297.84
2023-05-03T16:30:41.206Z,101319.56
2023-05-03T16:33:10.388Z,101323.28
2023-05-03T16:35:38.186Z,101309.53
2023-05-03T16:38:07.334Z,101313.59
2023-05-03T16:40:35.084Z,101313.69
2023-05-03T16:43:03.083Z,101320.78
2023-05-03T16:45:30.745Z,101320.97
2023-05-03T16:47:58.704Z,101319.06
2023-05-03T16:50:26.481Z,101320.97
2023-05-03T16:52:54.660Z,101319.69
2023-05-03T16:55:23.196Z,101327.50
2023-05-03T16:57:51.259Z,101321.91
2023-05-03T17:00:20.927Z,101318.53
2023-05-03T17:02:49.205Z,101314.59
2023-05-03T17:05:17.012Z,101318.13
2023-05-03T17:07:46.093Z,101320.09
2023-05-03T17:10:13.731Z,101326.78
2023-05-03T17:12:41.933Z,101328.38
2023-05-03T17:17:38.228Z,101333.03
2023-05-03T17:20:07.358Z,101327.00
2023-05-03T17:22:36.129Z,101332.41
2023-05-03T17:25:04.139Z,101330.22
2023-05-03T17:27:32.227Z,101334.66
2023-05-03T17:30:00.189Z,101339.59
2023-05-03T17:32:28.171Z,101338.06
2023-05-03T17:34:56.902Z,101327.97
2023-05-03T17:37:25.346Z,101337.94
2023-05-03T17:39:53.071Z,101332.34
2023-05-03T17:42:21.034Z,101337.69
2023-05-03T17:44:54.804Z,101338.06
2023-05-03T17:47:25.134Z,101335.84
2023-05-03T17:49:53.044Z,101341.72
2023-05-03T17:52:21.112Z,101340.50
2023-05-03T17:54:52.093Z,101340.75
2023-05-03T17:57:23.174Z,101346.22
2023-05-03T17:59:51.811Z,101343.84
2023-05-03T18:02:21.258Z,101350.28
2023-05-03T18:04:49.279Z,101355.84
2023-05-03T18:07:17.246Z,101358.59
2023-05-03T18:09:44.882Z,101349.44
2023-05-03T18:12:14.305Z,101361.97
2023-05-03T18:14:41.978Z,101363.16
2023-05-03T18:17:09.877Z,101358.25
2023-05-03T18:19:37.576Z,101366.31
2023-05-03T18:22:06.574Z,101369.97
2023-05-03T18:24:34.248Z,101371.03
2023-05-03T18:27:02.538Z,101371.22
2023-05-03T18:29:30.166Z,101369.63
2023-05-03T18:31:58.561Z,101367.94
2023-05-03T18:34:29.691Z,101371.59
2023-05-03T18:36:57.617Z,101368.97
2023-05-03T18:39:25.864Z,101370.91
2023-05-03T18:41:53.507Z,101371.03
2023-05-03T18:44:24.080Z,101370.22
2023-05-03T18:46:52.477Z,101374.59
2023-05-03T18:49:23.608Z,101372.97
2023-05-03T18:51:51.339Z,101373.06
2023-05-03T18:54:20.400Z,101379.25
2023-05-03T18:56:48.320Z,101375.84
2023-05-03T18:59:16.240Z,101374.13
2023-05-03T19:01:44.289Z,101373.31
2023-05-03T19:04:14.720Z,101370.78
2023-05-03T19:06:42.557Z,101376.88
2023-05-03T19:09:11.877Z,101376.97
2023-05-03T19:11:42.804Z,101374.41
2023-05-03T19:14:10.860Z,101377.91
2023-05-03T19:16:38.816Z,101370.09
2023-05-03T19:19:07.274Z,101379.66
2023-05-03T19:21:37.762Z,101374.50
2023-05-03T19:24:06.734Z,101375.38
2023-05-03T19:26:34.349Z,101383.19
2023-05-03T19:29:02.339Z,101382.34
2023-05-03T19:31:30.490Z,101386.69
2023-05-03T19:33:58.607Z,101386.72
2023-05-03T19:36:27.551Z,101384.06
2023-05-03T19:38:55.517Z,101384.13
2023-05-03T19:41:23.176Z,101388.44
2023-05-03T19:43:57.659Z,101387.56
2023-05-03T19:46:25.441Z,101389.28
2023-05-03T19:48:53.359Z,101392.75
2023-05-03T19:51:21.182Z,101391.03
2023-05-03T19:53:49.225Z,101386.69
2023-05-03T19:56:18.444Z,101392.75
2023-05-03T19:58:46.417Z,101387.56
2023-05-03T20:01:14.494Z,101384.88
2023-05-03T20:03:42.609Z,101390.06
2023-05-03T20:06:11.161Z,101395.22
2023-05-03T20:08:39.067Z,101392.66
2023-05-03T20:11:07.199Z,101397.81
2023-05-03T20:13:34.900Z,101402.13
2023-05-03T20:16:04.992Z,101391.72
2023-05-03T20:18:32.798Z,101388.22
2023-05-03T20:21:00.713Z,101392.59
2023-05-03T20:23:28.550Z,101396.06
2023-05-03T20:25:56.234Z,101395.16
2023-05-03T20:28:24.455Z,101400.28
2023-05-03T20:30:52.528Z,101393.34
2023-05-03T20:33:20.538Z,101397.66
2023-05-03T20:35:48.501Z,101397.63
2023-05-03T20:38:16.455Z,101403.69
2023-05-03T20:40:44.067Z,101395.00
2023-05-03T20:43:12.131Z,101401.91
2023-05-03T20:45:39.781Z,101401.00
2023-05-03T20:48:08.073Z,101400.94
2023-05-03T20:50:35.922Z,101407.81
2023-05-03T20:53:04.057Z,101399.13
2023-05-03T20:55:31.808Z,101396.50
2023-05-03T20:57:59.817Z,101402.53
2023-05-03T21:00:27.682Z,101400.75
2023-05-03T21:02:55.709Z,101399.06
2023-05-03T21:05:23.638Z,101395.50
2023-05-03T21:07:52.458Z,101402.38
2023-05-03T21:10:20.249Z,101395.41
2023-05-03T21:12:48.156Z,101398.94
2023-05-03T21:15:15.922Z,101397.09
2023-05-03T21:17:43.939Z,101397.00
2023-05-03T21:20:12.057Z,101386.53
2023-05-03T21:22:40.020Z,101389.06
2023-05-03T21:25:08.413Z,101393.47
2023-05-03T21:27:36.379Z,101387.38
2023-05-03T21:30:04.473Z,101389.00
2023-05-03T21:32:33.394Z,101390.13
2023-05-03T21:35:01.120Z,101389.09
2023-05-03T21:37:29.069Z,101388.13
2023-05-03T21:40:05.342Z,101390.63
2023-05-03T21:42:33.465Z,101387.94
2023-05-03T21:45:01.568Z,101381.84
2023-05-03T21:47:30.710Z,101387.03
2023-05-03T21:49:59.178Z,101386.09
2023-05-03T21:52:27.326Z,101385.28
2023-05-03T21:54:55.116Z,101394.69
2023-05-03T21:57:23.089Z,101391.22
2023-05-03T21:59:51.220Z,101390.31
2023-05-03T22:02:19.498Z,101392.84
2023-05-03T22:04:48.715Z,101394.53
2023-05-03T22:07:17.144Z,101390.19
2023-05-03T22:09:48.766Z,101387.53
2023-05-03T22:12:24.121Z,101393.56
2023-05-03T22:14:53.016Z,101396.22
2023-05-03T22:17:21.166Z,101395.34
2023-05-03T22:19:48.910Z,101397.88
2023-05-03T22:22:17.190Z,101396.13
2023-05-03T22:24:44.805Z,101399.59
2023-05-03T22:27:13.041Z,101397.13
2023-05-03T22:29:40.699Z,101401.38
2023-05-03T22:32:08.833Z,101398.78
2023-05-03T22:34:36.501Z,101397.88
2023-05-03T22:37:04.574Z,101390.00
2023-05-03T22:39:32.385Z,101395.06
2023-05-03T22:42:00.866Z,101393.22
2023-05-03T22:44:28.630Z,101399.16
2023-05-03T22:46:56.678Z,101399.16
2023-05-03T22:49:24.722Z,101406.47
2023-05-03T22:51:52.616Z,101412.94
2023-05-03T22:54:21.870Z,101407.28
2023-05-03T22:56:51.363Z,101402.75
2023-05-03T22:59:19.189Z,101405.19
2023-05-03T23:01:49.393Z,101401.72
2023-05-03T23:04:17.395Z,101405.91
2023-05-03T23:06:45.382Z,101403.13
2023-05-03T23:09:13.118Z,101403.84
2023-05-03T23:11:41.115Z,101405.47
2023-05-03T23:14:08.750Z,101407.94
2023-05-03T23:16:37.079Z,101400.13
2023-05-03T23:19:04.825Z,101402.66
2023-05-03T23:21:32.744Z,101402.72
2023-05-03T23:24:00.459Z,101400.84
2023-05-03T23:26:28.376Z,101403.38
2023-05-03T23:28:56.507Z,101405.16
2023-05-03T23:31:25.151Z,101405.22
2023-05-03T23:33:53.315Z,101396.47
2023-05-03T23:36:21.223Z,101402.41
2023-05-03T23:38:50.736Z,101398.09
2023-05-03T23:41:18.972Z,101403.03
2023-05-03T23:43:46.605Z,101396.38
2023-05-03T23:46:14.671Z,101396.25
2023-05-03T23:48:42.332Z,101396.09
2023-05-03T23:51:10.639Z,101398.50
2023-05-03T23:53:38.316Z,101387.16
2023-05-03T23:56:06.614Z,101383.75
2023-05-03T23:58:34.309Z,101386.28
